createdAt,value
2022-11-02T00:04:49.844Z,8.48
2022-11-02T00:09:52.434Z,11.55
2022-11-02T00:14:54.995Z,10.35
2022-11-02T00:19:58.178Z,10.48
2022-11-02T00:25:04.334Z,10.82
2022-11-02T00:30:07.583Z,9.82
2022-11-02T00:35:10.439Z,13.77
2022-11-02T00:40:13.072Z,10.38
2022-11-02T00:45:15.741Z,9.23
2022-11-02T00:50:18.570Z,10.63
2022-11-02T00:55:21.746Z,9.05
2022-11-02T01:00:24.707Z,10.35
2022-11-02T01:05:27.690Z,11.35
2022-11-02T01:10:30.478Z,12.77
2022-11-02T01:15:33.028Z,10.25
2022-11-02T01:20:36.340Z,10.35
2022-11-02T01:25:38.906Z,12.93
2022-11-02T01:30:41.646Z,9.73
2022-11-02T01:35:44.145Z,18.27
2022-11-02T01:40:48.068Z,16.67
2022-11-02T01:46:02.010Z,11.38
2022-11-02T01:51:11.331Z,13.70
2022-11-02T01:56:18.108Z,13.70
2022-11-02T02:01:22.135Z,15.00
2022-11-02T02:06:27.534Z,9.85
2022-11-02T02:11:36.299Z,9.82
2022-11-02T02:16:50.709Z,13.43
2022-11-02T02:22:20.956Z,11.25
2022-11-02T02:27:32.234Z,10.30
2022-11-02T02:32:49.435Z,9.75
2022-11-02T02:37:59.534Z,10.98
2022-11-02T02:43:49.458Z,13.82
2022-11-02T02:48:55.907Z,12.82
2022-11-02T02:54:03.482Z,10.60
2022-11-02T02:59:22.851Z,14.48
2022-11-02T03:04:26.031Z,10.30
2022-11-02T03:09:50.017Z,11.48
2022-11-02T03:15:05.006Z,9.95
2022-11-02T03:20:10.553Z,13.23
2022-11-02T03:25:20.799Z,12.23
2022-11-02T03:30:28.447Z,8.45
2022-11-02T03:35:35.611Z,11.13
2022-11-02T03:40:49.131Z,15.13
2022-11-02T03:45:57.192Z,10.07
2022-11-02T03:51:07.006Z,12.65
2022-11-02T03:56:20.145Z,12.10
2022-11-02T04:01:23.236Z,12.57
2022-11-02T04:06:27.431Z,11.10
2022-11-02T04:11:49.717Z,11.32
2022-11-02T04:17:15.091Z,10.52
2022-11-02T04:22:41.510Z,16.08
2022-11-02T04:27:53.155Z,17.88
2022-11-02T04:33:18.983Z,13.85
2022-11-02T04:38:42.912Z,9.60
2022-11-02T04:43:53.796Z,9.30
2022-11-02T04:48:56.611Z,9.23
2022-11-02T04:54:00.494Z,11.10
2022-11-02T04:59:04.754Z,11.20
2022-11-02T05:04:10.991Z,11.30
2022-11-02T05:09:14.927Z,10.25
2022-11-02T05:14:21.054Z,10.95
2022-11-02T05:19:23.890Z,10.90
2022-11-02T05:24:26.590Z,12.93
2022-11-02T05:29:30.108Z,14.15
2022-11-02T05:34:33.335Z,9.40
2022-11-02T05:39:37.353Z,13.70
2022-11-02T05:44:40.268Z,9.88
2022-11-02T05:49:42.892Z,10.52
2022-11-02T05:54:45.467Z,9.35
2022-11-02T05:59:49.446Z,13.07
2022-11-02T06:04:52.291Z,15.88
2022-11-02T06:09:54.936Z,10.70
2022-11-02T06:14:57.507Z,11.55
2022-11-02T06:20:00.035Z,12.50
2022-11-02T06:25:02.685Z,14.02
2022-11-02T06:30:07.319Z,14.30
2022-11-02T06:35:10.362Z,11.90
2022-11-02T06:40:14.423Z,11.43
2022-11-02T06:45:17.298Z,11.43
2022-11-02T06:50:20.214Z,13.63
2022-11-02T06:55:22.944Z,16.95
2022-11-02T07:00:25.681Z,9.75
2022-11-02T07:05:28.731Z,12.60
2022-11-02T07:10:31.972Z,16.25
2022-11-02T07:15:34.547Z,11.68
2022-11-02T07:20:37.318Z,12.13
2022-11-02T07:25:39.917Z,11.85
2022-11-02T07:30:42.837Z,14.07
2022-11-02T07:35:45.388Z,16.42
2022-11-02T07:40:52.783Z,10.90
2022-11-02T07:45:56.235Z,15.80
2022-11-02T07:51:02.078Z,13.75
2022-11-02T07:56:05.320Z,17.75
2022-11-02T08:01:08.003Z,20.30
2022-11-02T08:06:10.542Z,18.33
2022-11-02T08:11:13.166Z,24.88
2022-11-02T08:16:16.015Z,30.17
2022-11-02T08:21:18.578Z,23.95
2022-11-02T08:26:21.544Z,26.45
2022-11-02T08:31:24.241Z,27.35
2022-11-02T08:36:26.818Z,27.25
2022-11-02T08:41:29.756Z,23.30
2022-11-02T08:46:32.341Z,24.83
2022-11-02T08:51:34.810Z,19.25
2022-11-02T08:56:37.458Z,20.27
2022-11-02T09:01:40.324Z,20.40
2022-11-02T09:06:43.138Z,18.42
2022-11-02T09:11:45.818Z,18.20
2022-11-02T09:16:48.488Z,20.33
2022-11-02T09:21:51.680Z,20.30
2022-11-02T09:26:54.304Z,17.60
2022-11-02T09:31:56.864Z,11.60
2022-11-02T09:36:59.478Z,16.80
2022-11-02T09:42:13.918Z,16.83
2022-11-02T09:48:02.975Z,12.90
2022-11-02T09:52:43.562Z,14.18
2022-11-02T09:57:51.107Z,10.50
2022-11-02T10:03:12.459Z,12.43
2022-11-02T10:08:24.443Z,12.67
2022-11-02T10:13:42.277Z,11.20
2022-11-02T10:18:49.547Z,14.95
2022-11-02T10:23:54.933Z,16.95
2022-11-02T10:29:01.914Z,15.25
2022-11-02T10:34:24.537Z,18.13
2022-11-02T10:39:39.651Z,19.08
2022-11-02T10:45:11.579Z,18.40
2022-11-02T10:50:37.162Z,16.75
2022-11-02T10:55:55.575Z,16.08
2022-11-02T11:01:12.736Z,14.55
2022-11-02T11:06:15.538Z,12.65
2022-11-02T11:11:24.511Z,12.98
2022-11-02T11:16:50.160Z,13.05
2022-11-02T11:21:53.586Z,10.95
2022-11-02T11:27:12.135Z,12.90
2022-11-02T11:32:22.751Z,13.40
2022-11-02T11:37:28.642Z,10.00
2022-11-02T11:42:35.153Z,7.75
2022-11-02T11:47:40.561Z,11.90
2022-11-02T11:52:44.641Z,14.45
2022-11-02T11:57:47.713Z,11.90
2022-11-02T12:03:07.108Z,8.05
2022-11-02T12:08:16.034Z,9.38
2022-11-02T12:13:27.505Z,10.90
2022-11-02T12:18:42.108Z,11.98
2022-11-02T12:24:05.966Z,11.57
2022-11-02T12:29:41.330Z,20.02
2022-11-02T12:35:27.767Z,13.00
2022-11-02T12:41:09.719Z,13.32
2022-11-02T12:46:38.452Z,12.13
2022-11-02T12:51:52.890Z,20.35
2022-11-02T12:56:55.814Z,15.57
2022-11-02T13:07:19.632Z,15.32
2022-11-02T13:12:24.817Z,15.57
2022-11-02T13:17:45.999Z,13.65
2022-11-02T13:22:55.721Z,17.80
2022-11-02T13:28:06.101Z,15.45
2022-11-02T13:33:16.499Z,17.30
2022-11-02T13:38:55.690Z,13.82
2022-11-02T13:44:09.804Z,19.02
2022-11-02T13:49:17.129Z,16.45
2022-11-02T13:54:30.690Z,14.95
2022-11-02T13:59:43.264Z,13.82
2022-11-02T14:04:48.747Z,15.52
2022-11-02T14:09:58.869Z,15.80
2022-11-02T14:15:13.634Z,18.92
2022-11-02T14:20:35.818Z,17.25
2022-11-02T14:25:51.881Z,10.57
2022-11-02T14:31:03.685Z,19.15
2022-11-02T14:36:19.701Z,15.73
2022-11-02T14:41:37.183Z,13.63
2022-11-02T14:47:07.387Z,14.38
2022-11-02T14:52:16.220Z,13.65
2022-11-02T14:57:40.221Z,17.00
2022-11-02T15:02:52.646Z,13.98
2022-11-02T15:08:02.323Z,15.20
2022-11-02T15:13:20.223Z,13.93
2022-11-02T15:18:31.848Z,17.90
2022-11-02T15:23:43.428Z,17.70
2022-11-02T15:28:50.068Z,16.50
2022-11-02T15:33:59.442Z,13.65
2022-11-02T15:39:10.698Z,13.45
2022-11-02T15:44:31.564Z,14.63
2022-11-02T15:50:05.385Z,14.55
2022-11-02T15:55:11.043Z,15.95
2022-11-02T16:00:23.694Z,13.40
2022-11-02T16:05:29.690Z,11.32
2022-11-02T16:10:37.664Z,17.98
2022-11-02T16:15:43.783Z,17.27
2022-11-02T16:20:46.739Z,13.68
2022-11-02T16:25:50.978Z,12.73
2022-11-02T16:31:19.253Z,14.07
2022-11-02T16:36:23.929Z,12.77
2022-11-02T16:41:32.304Z,10.13
2022-11-02T16:46:40.723Z,26.92
2022-11-02T16:51:58.372Z,23.85
2022-11-02T16:57:11.449Z,20.92
2022-11-02T17:02:16.016Z,18.33
2022-11-02T17:07:32.157Z,20.95
2022-11-02T17:12:38.339Z,16.83
2022-11-02T17:17:40.998Z,9.40
2022-11-02T17:23:01.412Z,13.02
2022-11-02T17:28:41.865Z,13.43
2022-11-02T17:33:45.204Z,12.90
2022-11-02T17:38:47.939Z,12.43
2022-11-02T17:43:50.476Z,11.80
2022-11-02T17:48:53.002Z,9.35
2022-11-02T17:53:55.594Z,12.00
2022-11-02T17:58:58.509Z,12.25
2022-11-02T18:04:00.985Z,16.50
2022-11-02T18:09:14.051Z,11.60
2022-11-02T18:14:17.123Z,9.35
2022-11-02T18:19:19.809Z,11.57
2022-11-02T18:24:22.342Z,11.15
2022-11-02T18:29:25.102Z,10.95
2022-11-02T18:34:27.709Z,12.80
2022-11-02T18:39:30.359Z,12.68
2022-11-02T18:44:33.220Z,8.98
2022-11-02T18:49:35.722Z,9.98
2022-11-02T18:54:38.314Z,9.35
2022-11-02T18:59:41.072Z,8.20
2022-11-02T19:04:43.625Z,10.48
2022-11-02T19:09:46.541Z,10.73
2022-11-02T19:14:51.699Z,8.30
2022-11-02T19:19:54.635Z,8.48
2022-11-02T19:24:57.315Z,6.55
2022-11-02T19:30:00.148Z,5.53
2022-11-02T19:35:08.668Z,8.27
2022-11-02T19:40:12.089Z,6.30
2022-11-02T19:45:17.989Z,5.63
2022-11-02T19:50:24.980Z,5.18
2022-11-02T19:55:29.601Z,4.93
2022-11-02T20:00:32.379Z,4.45
2022-11-02T20:05:35.067Z,4.65
2022-11-02T20:10:37.559Z,8.68
2022-11-02T20:15:40.697Z,5.82
2022-11-02T20:20:43.376Z,5.90
2022-11-02T20:25:46.963Z,5.78
2022-11-02T20:30:49.679Z,4.13
2022-11-02T20:35:52.291Z,4.13
2022-11-02T20:40:54.972Z,2.60
2022-11-02T20:46:31.546Z,3.28
2022-11-02T20:51:29.475Z,4.65
2022-11-02T20:56:32.006Z,4.43
2022-11-02T21:01:35.329Z,4.43
2022-11-02T21:06:37.999Z,3.60
2022-11-02T21:11:59.026Z,3.58
2022-11-02T21:17:02.961Z,2.70
2022-11-02T21:22:05.635Z,2.72
2022-11-02T21:27:08.325Z,3.00
2022-11-02T21:32:11.018Z,2.75
2022-11-02T21:37:13.668Z,2.95
2022-11-02T21:42:16.188Z,2.55
2022-11-02T21:47:18.819Z,5.20
2022-11-02T21:52:21.345Z,4.68
2022-11-02T21:57:23.932Z,3.88
2022-11-02T22:02:26.659Z,3.67
2022-11-02T22:07:49.386Z,3.25
2022-11-02T22:13:10.324Z,2.78
2022-11-02T22:18:12.841Z,3.40
2022-11-02T22:23:15.370Z,3.83
2022-11-02T22:28:17.924Z,4.10
2022-11-02T22:33:20.626Z,4.22
2022-11-02T22:38:41.786Z,2.75
2022-11-02T22:43:44.377Z,2.43
2022-11-02T22:48:47.045Z,2.97
2022-11-02T22:53:50.277Z,2.78
2022-11-02T22:58:52.862Z,3.10
2022-11-02T23:03:56.034Z,3.83
2022-11-02T23:08:59.280Z,2.47
2022-11-02T23:14:10.921Z,3.40
2022-11-02T23:19:45.132Z,1.60
2022-11-02T23:25:11.963Z,3.40
2022-11-02T23:30:33.902Z,2.33
2022-11-02T23:35:55.055Z,2.63
2022-11-02T23:40:57.528Z,1.80
2022-11-02T23:46:00.053Z,3.25
2022-11-02T23:51:20.919Z,2.65
2022-11-02T23:56:42.208Z,1.58
